Portada
METAR-TAF:

METAR-TAF

Aeroports :

Funchal, Madeira, Portugal

latitud: 32-41-52N, longitud: 016-46-28W, altitud: 59 m

Observació

L'informe es va fer fa 22 minuts, a les 22:30 UTC
Vent 9 kt del Nord, variant entre Nord/Nord-Oest i Nord-Est
Temperatura 21°C
Humitat 69%
Pressió 1026 hPa
Visibilitat 10 km o més
Escasses núvols a una alçada de 1600 ft

METAR: LPMA 152230Z 01009KT 330V040 9999 FEW016 21/15 Q1026

Hora: 23:52 (22:52 UTC)

Pronòstic

L'informe es va fer fa 5 hores i 52 minuts, a les 17:00 UTC
Pronòstic vàlid del 15 a les 18 UTC al 16 a les 18 UTC
Vent 12 kt del Nord/Nord-Est
Visibilitat 10 km o més
Núvols disperses a una alçada de 1500 ft

TAF: LPMA 151700Z 1518/1618 02012KT 9999 SCT015

Observacions i pronòstics meteorològics de més de 4000 aeroports (METAR i TAF).

Les estacions disponibles són els punts grocs i vermells al mapa.

Posi el ratolí al punt desitjat per veure el nom de l'estació.

Feu clic per veure les observacions i els pronòstics meteorològics.

Per canviar el mapa: feu clic els botons verds amb una creu de color negre per apropar; al botó verd amb un guió per allunyar la imatge; o en les fletxes verdes per a mapes adjacents.


METAR-TAF: